Two Buttes, CO (81084)

12:24 PM MST del 16 Gennaio 2017 (GMT -0700)
Star Community Church | | Change Station

Alt. 3940 ft 37.69 °N, 102.26 °W | Updated 17 minutes ago

Coperto
Coperto
35.1 °F
Sembra 32 °F
N
3.4
Vento Variabile Vento da Est

Oggi
Massima -- | Minima -- °F
--% Possibilità di precip.
Ieri
Massima -- | Minima -- °F
Precip. -- in
Pressione 30.00 in
Visibilità 4.0 miglia
Nuvole Coperto 700 ft
Raffreddamento del vento 32 °F
Punto di rugiada 35 °F
Umidità 99%
Piovosità 0.00 in
Spessore del manto nevoso Non disponibile.
7:02 AM 4:56 PM
Gobba a levante, 79% visible
METAR KLAA 161853Z AUTO 26007KT 4SM -SN BR OVC007 01/M01 A2996 RMK AO2 CIG 007V013 SLP158 P0003 T00111006 TSNO
Pressione 30.00 in
Visibilità 4.0 miglia
Nuvole Coperto 700 ft
Raffreddamento del vento 32 °F
Punto di rugiada 35 °F
Umidità 99%
Piovosità 0.00 in
Spessore del manto nevoso Non disponibile.
7:02 AM 4:56 PM
Gobba a levante, 79% visible
METAR KLAA 161853Z AUTO 26007KT 4SM -SN BR OVC007 01/M01 A2996 RMK AO2 CIG 007V013 SLP158 P0003 T00111006 TSNO

Get Your Daily Forecast Email!

Thanks for signing up!

Be on the lookout for a verification email in your inbox.

You'll start receiving the daily forecast at 8 AM.

×

10-Day Weather Forecast

Almanac

Astronomia

Jan. 16, 2017 Alba Tramonto
Ora attuale
Crepuscolo civile
Crepuscolo nautico
Crepuscolo astronomico
Luna
Estensione della luce visibile
Lunghezza del giorno
Tomorrow will be .
, % of the Moon is Illuminated

Gli estremi di oggi

State Highs State Lows

Community

WunderPhotos

Upload Photos

1,962,540 foto caricate!

WunderBlog® & News

Nearby

Qualità dell'aria

  Qualità dell'aria Indice AQ Inquinante
Not available.

Profondità neve

Stazione Profondità Altitudine

Attività sismica

Città  Distanza Mag. Data & Ora
Minimo Magnitudo Mostrato è 2.5.

Temperature delle acque costiere

Località Temperatura

Stations

Stazioni meteo nelle vicinanze

Ubicazione della stazione Temp. Raffreddamento del vento Punto di rugiada Umidità Vento Precip. Alt. Aggiornato Tipo
                   

Watches & Warnings

There are currently no watches in effect.